Latest Weather Observations for Witchcliffe

IDW60801

Issued at 9:32 pm WST Saturday 28 May 2016 (issued every 30 minutes, with the page automatically refreshed every 10 minutes)

About weather observations | Map of weather stations | Latest weather observations for WA | Other Formats
Station Details ID: 009746 Name: WITCHCLIFFE Lat: -34.03 Lon: 115.10 Height: 80.0 m
Data from the previous 72 hours. | See also: Recent months at Witchcliffe
Date/Time
WST
Temp
°C
App
Temp
°C
Dew
Point
Rel
Hum
%
Delta-T
°C
Wind Press
QNH
hPa
Press
MSL
hPa
Rain
since 9 am
mm
Dir
 
Spd
km/h
Gust
km/h
Spd
kts
Gust
kts
28/09:30pm 12.0 11.8 10.4 90 0.8 S 2 9 1 5 1017.1 1017.1 0.4
28/09:00pm 11.9 10.6 10.0 88 1.0 SW 7 9 4 5 1016.8 1016.8 0.4
28/08:30pm 11.5 10.0 9.1 85 1.2 SSE 7 9 4 5 1016.5 1016.5 0.4
28/08:00pm 12.4 11.2 9.4 82 1.5 S 6 13 3 7 1016.3 1016.3 0.4
28/07:30pm 12.4 10.9 9.1 80 1.7 SSW 7 13 4 7 1016.1 1016.1 0.4
28/07:00pm 12.7 11.0 8.4 75 2.1 SW 7 11 4 6 1015.9 1015.9 0.4
28/06:30pm 13.1 10.1 9.2 77 2.0 SSW 15 22 8 12 1015.5 1015.4 0.4
28/06:00pm 13.4 11.1 9.1 75 2.2 SSW 11 17 6 9 1015.3 1015.2 0.4
28/05:30pm 13.7 12.1 8.1 69 2.8 SW 6 13 3 7 1014.9 1014.8 0.4
28/05:00pm 14.6 12.5 8.1 65 3.3 SW 9 15 5 8 1014.8 1014.7 0.4
28/04:30pm 15.1 12.0 7.4 60 3.8 SW 13 22 7 12 1014.6 1014.5 0.4
28/04:00pm 15.5 12.0 7.3 58 4.1 SW 15 24 8 13 1014.3 1014.2 0.4
28/03:30pm 16.3 12.2 8.0 58 4.2 SW 19 28 10 15 1014.0 1013.9 0.4
28/03:00pm 16.3 12.2 8.0 58 4.2 SW 19 30 10 16 1013.8 1013.7 0.4
28/02:30pm 16.5 12.3 8.2 58 4.2 SW 20 30 11 16 1013.6 1013.5 0.4
28/02:00pm 16.6 12.5 8.8 60 4.0 SSW 20 37 11 20 1013.2 1013.1 0.4
28/01:30pm 17.3 13.7 10.0 62 3.9 SW 19 32 10 17 1012.9 1012.8 0.4
28/01:00pm 16.2 11.8 8.9 62 3.8 SW 22 33 12 18 1012.9 1012.8 0.4
28/12:30pm 16.6 12.7 9.5 63 3.7 SW 20 28 11 15 1013.0 1012.9 0.4
28/12:00pm 16.8 13.4 10.6 67 3.3 SW 19 30 10 16 1013.3 1013.2 0.4
28/11:30am 16.0 13.2 10.1 68 3.1 SW 15 28 8 15 1013.5 1013.4 0.4
28/11:00am 15.7 12.0 10.0 69 3.0 SW 20 35 11 19 1013.7 1013.6 0.0
28/10:30am 16.2 12.3 8.7 61 3.8 SW 19 32 10 17 1013.7 1013.6 0.0
28/10:00am 16.2 13.0 9.8 66 3.4 WSW 17 22 9 12 1013.7 1013.6 0.0
28/09:30am 16.0 14.2 11.0 72 2.7 SW 11 20 6 11 1013.4 1013.3 0.0
28/09:00am 15.4 13.6 11.0 75 2.4 W 11 19 6 10 1013.4 1013.3 16.2
28/08:30am 14.3 12.0 10.3 77 2.1 WNW 13 24 7 13 1013.2 1013.1 16.2
28/08:00am 14.5 12.0 8.2 66 3.2 WSW 11 20 6 11 1012.7 1012.6 16.2
28/07:30am 14.4 11.2 8.6 68 2.9 WSW 15 26 8 14 1012.4 1012.3 16.2
28/07:00am 14.0 11.7 9.0 72 2.5 WSW 11 17 6 9 1012.1 1012.0 16.2
28/06:30am 13.9 10.9 9.3 74 2.4 WSW 15 24 8 13 1011.9 1011.8 16.2
28/06:00am 13.1 11.6 10.6 85 1.3 W 9 19 5 10 1011.6 1011.5 16.0
28/05:30am 14.7 12.1 9.3 70 2.8 WSW 13 24 7 13 1011.5 1011.4 15.2
28/05:00am 15.1 12.1 9.2 68 3.0 WSW 15 24 8 13 1011.3 1011.2 15.2
28/04:30am 15.0 11.3 9.4 69 2.9 WSW 19 32 10 17 1011.2 1011.1 15.2
28/04:00am 14.8 11.2 9.8 72 2.6 WSW 19 28 10 15 1011.0 1010.9 15.2
28/03:30am 14.2 11.1 10.4 78 2.0 W 17 24 9 13 1011.0 1010.9 15.2
28/03:00am 13.3 10.7 10.8 85 1.3 WSW 15 28 8 15 1011.2 1011.1 15.2
28/02:30am 14.8 11.1 9.4 70 2.8 W 19 28 10 15 1010.9 1010.8 13.4
28/02:00am 14.4 11.3 10.2 76 2.2 W 17 26 9 14 1011.0 1010.9 13.4
28/01:30am 13.7 11.6 12.4 92 0.7 WNW 15 24 8 13 1010.5 1010.4 13.4
28/01:00am 15.0 13.1 14.2 95 0.5 NW 17 26 9 14 1010.4 1010.3 11.4
28/12:32am 14.8 10.9 14.5 98 0.2 NW 28 46 15 25 1010.8 1010.7 11.2
28/12:30am 14.8 10.5 14.5 98 0.2 NW 30 46 16 25 1010.8 1010.7 11.2
28/12:16am 14.3 10.2 13.8 97 0.3 NW 28 46 15 25 1011.0 1010.9 11.2
28/12:00am 14.3 12.0 14.0 98 0.2 NW 19 39 10 21 1011.3 1011.2 9.2
 
Date/Time
WST
Temp
°C
App
Temp
°C
Dew
Point
Rel
Hum
%
Delta-T
°C
Wind Press
QNH
hPa
Press
MSL
hPa
Rain
since 9 am
mm
Dir
 
Spd
km/h
Gust
km/h
Spd
kts
Gust
kts
27/11:30pm 13.9 9.6 12.1 89 1.0 NNW 26 37 14 20 1011.5 1011.4 3.8
27/11:00pm 14.7 9.8 11.3 80 1.8 NW 28 44 15 24 1012.3 1012.2 1.6
27/10:30pm 16.5 12.0 12.7 78 2.1 NNW 28 37 15 20 1011.9 1011.8 0.0
27/10:00pm 15.9 12.6 11.5 75 2.4 N 20 26 11 14 1012.3 1012.2 0.0
27/09:30pm 15.6 11.9 11.6 77 2.2 N 22 30 12 16 1012.9 1012.8 0.0
27/09:00pm 15.5 12.0 12.1 80 1.9 N 22 26 12 14 1013.1 1013.0 0.0
27/08:30pm 15.2 12.0 11.8 80 1.8 N 20 28 11 15 1013.7 1013.6 0.0
27/08:00pm 14.4 12.0 11.4 82 1.6 N 15 19 8 10 1014.3 1014.2 0.0
27/07:30pm 14.1 11.8 10.5 79 1.9 N 13 19 7 10 1014.7 1014.6 0.0
27/07:00pm 14.8 11.8 10.8 77 2.1 N 17 26 9 14 1015.0 1014.9 0.0
27/06:30pm 15.2 11.7 10.8 75 2.3 N 20 28 11 15 1015.2 1015.1 0.0
27/06:00pm 15.0 11.8 11.2 78 2.0 N 19 24 10 13 1015.5 1015.4 0.0
27/05:30pm 15.6 12.4 11.2 75 2.4 N 19 24 10 13 1015.5 1015.4 0.0
27/05:00pm 15.9 12.1 11.3 74 2.5 NNE 22 32 12 17 1015.5 1015.4 0.0
27/04:30pm 16.2 13.1 10.3 68 3.1 NNE 17 22 9 12 1015.9 1015.9 0.0
27/04:00pm 16.3 12.2 8.5 60 4.0 N 20 28 11 15 1016.3 1016.3 0.0
27/03:30pm 16.6 12.2 8.8 60 4.0 N 22 30 12 16 1016.5 1016.5 0.0
27/03:00pm 17.4 13.3 7.7 53 4.9 NNW 19 26 10 14 1016.5 1016.5 0.0
27/02:30pm 17.6 12.2 6.5 48 5.5 NNW 24 35 13 19 1016.8 1016.8 0.0
27/02:00pm 17.6 12.1 7.4 51 5.1 N 26 37 14 20 1017.1 1017.1 0.0
27/01:30pm 18.0 14.0 8.3 53 5.0 NNW 19 28 10 15 1017.6 1017.6 0.0
27/01:00pm 17.9 12.7 7.3 50 5.3 NNW 24 37 13 20 1017.9 1017.9 0.0
27/12:30pm 17.9 12.9 7.9 52 5.1 NNW 24 33 13 18 1018.8 1018.8 0.0
27/12:00pm 17.6 11.7 7.6 52 5.1 NNW 28 44 15 24 1019.4 1019.4 0.0
27/11:30am 17.6 13.1 8.5 55 4.7 N 22 37 12 20 1019.8 1019.8 0.0
27/11:00am 16.5 14.0 9.7 64 3.6 N 13 20 7 11 1020.7 1020.6 0.0
27/10:30am 14.4 11.4 9.4 72 2.6 N 15 20 8 11 1021.5 1021.4 0.0
27/10:00am 14.5 11.9 9.5 72 2.6 N 13 20 7 11 1021.6 1021.5 0.0
27/09:30am 13.6 10.2 9.3 75 2.2 N 17 22 9 12 1021.7 1021.6 0.0
27/09:00am 13.3 9.8 8.6 73 2.4 N 17 20 9 11 1021.8 1021.7 0.0
27/08:30am 11.9 8.4 7.4 74 2.2 N 15 20 8 11 1021.8 1021.7 0.0
27/08:00am 11.0 7.3 6.4 73 2.2 N 15 22 8 12 1021.6 1021.5 0.0
27/07:30am 10.9 8.2 5.7 70 2.4 N 9 13 5 7 1021.6 1021.5 0.0
27/07:00am 11.0 8.3 5.5 69 2.5 N 9 15 5 8 1021.7 1021.6 0.0
27/06:30am 10.5 7.6 6.3 75 2.0 N 11 13 6 7 1021.5 1021.4 0.0
27/06:00am 10.5 7.1 5.9 73 2.1 N 13 15 7 8 1021.3 1021.2 0.0
27/05:30am 9.9 7.3 6.1 77 1.8 N 9 9 5 5 1021.3 1021.2 0.0
27/05:00am 9.1 6.8 5.7 79 1.5 N 7 9 4 5 1021.2 1021.1 0.0
27/04:30am 7.8 5.4 5.1 83 1.2 N 7 9 4 5 1021.2 1021.1 0.0
27/04:00am 8.1 5.6 5.0 81 1.4 N 7 9 4 5 1021.5 1021.4 0.0
27/03:30am 7.8 5.1 5.6 86 1.0 N 9 11 5 6 1021.7 1021.6 0.0
27/03:00am 7.7 6.9 6.6 93 0.5 CALM 0 0 0 0 1022.1 1022.0 0.0
27/02:30am 7.2 6.5 7.1 99 0.0 CALM 0 0 0 0 1022.1 1022.0 0.0
27/02:00am 6.1 5.1 5.8 98 0.1 CALM 0 0 0 0 1022.0 1021.9 0.0
27/01:30am 6.0 5.0 5.6 97 0.2 CALM 0 0 0 0 1022.2 1022.1 0.0
27/01:00am 6.2 5.3 5.9 98 0.1 CALM 0 0 0 0 1022.0 1021.9 0.0
27/12:30am 6.1 5.1 5.8 98 0.1 CALM 0 0 0 0 1022.0 1021.9 0.0
27/12:00am 5.7 4.6 5.1 96 0.3 CALM 0 0 0 0 1022.3 1022.2 0.0
 
Date/Time
WST
Temp
°C
App
Temp
°C
Dew
Point
Rel
Hum
%
Delta-T
°C
Wind Press
QNH
hPa
Press
MSL
hPa
Rain
since 9 am
mm
Dir
 
Spd
km/h
Gust
km/h
Spd
kts
Gust
kts
26/11:30pm 5.8 4.7 5.1 95 0.3 CALM 0 0 0 0 1022.5 1022.4 0.0
26/11:00pm 6.3 5.3 5.6 95 0.3 CALM 0 0 0 0 1022.6 1022.5 0.0
26/10:30pm 6.2 5.1 5.2 93 0.4 CALM 0 0 0 0 1022.4 1022.3 0.0
26/10:00pm 7.0 6.1 6.1 94 0.4 CALM 0 0 0 0 1022.6 1022.5 0.0
26/09:30pm 7.5 6.7 6.6 94 0.4 CALM 0 4 0 2 1022.4 1022.3 0.0
26/09:00pm 7.0 4.8 6.1 94 0.4 N 7 9 4 5 1022.3 1022.2 0.0
26/08:30pm 7.1 6.2 6.0 93 0.5 CALM 0 0 0 0 1022.3 1022.2 0.0
26/08:00pm 7.4 6.5 5.9 90 0.7 CALM 0 0 0 0 1022.0 1021.9 0.0
26/07:30pm 7.5 6.1 5.6 88 0.9 NNW 2 6 1 3 1021.7 1021.6 0.0
26/07:00pm 8.6 7.8 6.4 86 1.0 CALM 0 0 0 0 1021.2 1021.1 0.0
26/06:30pm 8.8 7.9 6.1 83 1.2 CALM 0 0 0 0 1020.9 1020.8 0.0
26/06:00pm 9.8 8.8 5.6 75 1.9 CALM 0 0 0 0 1020.6 1020.5 0.0
26/05:30pm 11.9 10.9 5.5 65 3.0 CALM 0 0 0 0 1020.3 1020.2 0.0
26/05:00pm 14.6 12.4 5.1 53 4.5 W 6 13 3 7 1020.1 1020.0 0.0
26/04:30pm 15.6 12.9 5.5 51 4.8 SW 9 15 5 8 1019.9 1019.9 0.0
26/04:00pm 16.0 12.8 5.3 49 5.1 WSW 11 19 6 10 1019.7 1019.7 0.0
26/03:30pm 16.3 12.8 5.3 48 5.3 SW 13 26 7 14 1019.4 1019.4 0.0
26/03:00pm 16.8 13.9 6.6 51 5.0 SW 11 19 6 10 1019.3 1019.3 0.0
26/02:30pm 16.1 11.8 5.1 48 5.2 WSW 17 24 9 13 1019.0 1019.0 0.0
26/02:00pm 16.7 13.0 6.2 50 5.1 SW 15 24 8 13 1018.7 1018.7 0.0
26/01:30pm 17.0 13.0 6.8 51 5.1 WSW 17 28 9 15 1018.6 1018.6 0.0
26/01:00pm 16.6 12.1 7.0 53 4.8 SW 20 30 11 16 1018.3 1018.3 0.0
26/12:30pm 16.1 12.2 7.1 55 4.5 SW 17 30 9 16 1018.2 1018.2 0.0
26/12:00pm 17.0 13.1 5.3 46 5.6 SW 15 24 8 13 1018.3 1018.3 0.0
26/11:30am 16.4 12.1 7.1 54 4.6 SW 19 30 10 16 1018.4 1018.4 0.0
26/11:00am 16.1 11.5 6.5 53 4.7 SW 20 28 11 15 1018.2 1018.2 0.0
26/10:30am 15.7 13.9 9.4 66 3.3 W 9 15 5 8 1017.9 1017.9 0.0
26/10:00am 14.8 10.9 8.5 66 3.2 WSW 19 35 10 19 1017.8 1017.8 0.0
26/09:30am 16.1 12.7 7.8 58 4.2 WSW 15 22 8 12 1017.3 1017.3 0.0
26/09:00am 15.6 12.0 6.6 55 4.4 WSW 15 20 8 11 1016.3 1016.3 14.2
26/08:30am 14.9 11.7 6.7 58 4.0 SW 13 20 7 11 1015.8 1015.8 14.2
26/08:00am 13.8 10.6 6.9 63 3.4 SW 13 24 7 13 1015.1 1015.0 14.2
26/07:30am 14.1 11.5 7.9 66 3.1 WSW 11 17 6 9 1014.3 1014.2 14.2
26/07:00am 13.8 10.8 7.6 66 3.1 WSW 13 22 7 12 1014.0 1013.9 14.2
26/06:30am 14.2 10.1 7.7 65 3.2 WSW 19 33 10 18 1013.1 1013.0 14.2
26/06:00am 14.0 10.4 8.4 69 2.8 WSW 17 28 9 15 1012.9 1012.8 14.2
26/05:30am 13.6 10.6 9.1 74 2.3 WSW 15 24 8 13 1012.7 1012.6 14.2
26/05:00am 13.1 10.8 10.6 85 1.3 W 13 22 7 12 1012.9 1012.8 14.2
26/04:30am 13.7 8.9 10.3 80 1.8 SW 26 39 14 21 1012.7 1012.6 13.8
26/04:00am 14.8 10.7 8.7 67 3.1 W 20 43 11 23 1011.8 1011.7 13.8
26/03:30am 13.6 10.4 8.4 71 2.6 W 15 28 8 15 1011.8 1011.7 13.8
26/03:00am 12.6 10.7 10.5 87 1.1 W 11 17 6 9 1011.7 1011.6 13.8
26/02:30am 12.3 9.4 9.7 84 1.3 W 15 20 8 11 1011.4 1011.3 13.8
26/02:11am 12.4 7.4 8.1 75 2.1 W 24 56 13 30 1011.5 1011.4 13.4
26/02:10am 12.8 8.2 8.3 74 2.2 W 22 56 12 30 1011.6 1011.5 13.0
26/02:00am 14.3 11.0 9.7 74 2.4 WNW 17 24 9 13 1010.9 1010.8 11.8
26/01:30am 13.4 11.0 10.0 80 1.8 W 13 24 7 13 1010.7 1010.6 11.8
26/01:00am 13.3 11.5 11.0 86 1.2 WNW 11 17 6 9 1010.6 1010.5 11.8
26/12:30am 12.6 9.5 10.3 86 1.2 WNW 17 24 9 13 1010.9 1010.8 11.6
26/12:00am 13.7 10.7 10.5 81 1.7 W 17 48 9 26 1011.2 1011.1 10.2
 
Date/Time
WST
Temp
°C
App
Temp
°C
Dew
Point
Rel
Hum
%
Delta-T
°C
Wind Press
QNH
hPa
Press
MSL
hPa
Rain
since 9 am
mm
Dir
 
Spd
km/h
Gust
km/h
Spd
kts
Gust
kts
25/11:30pm 13.3 10.5 10.1 81 1.7 WNW 15 22 8 12 1010.7 1010.6 8.8
25/11:00pm 13.5 12.2 11.4 87 1.1 W 9 13 5 7 1010.6 1010.5 8.6
25/10:30pm 13.6 11.8 10.8 83 1.5 WNW 11 19 6 10 1010.7 1010.6 7.2
25/10:00pm 12.9 10.2 10.4 85 1.3 W 15 24 8 13 1010.7 1010.6 7.2

Other Formats:

Comma delimited format used in spreadsheet applications
http://www.bom.gov.au/fwo/IDW60801/IDW60801.95641.axf

JavaScript Object Notation format (JSON) in row-major order
http://www.bom.gov.au/fwo/IDW60801/IDW60801.95641.json